Terminal Aerodrome Forecast
Issued by NWS Lubbock, TX

Home | Current Version | Previous Version | Text Only | Print | Product List | Glossary On
Versions: 1 2 3 4 5 6 7 8 9 10 11 12 13 14 15 16 17 18 19 20 21 22
538
FTUS44 KLUB 291726
TAFLBB
TAF
KLBB 291726Z 2918/3018 32018G22KT P6SM SCT010 OVC020
      TEMPO 2918/2920 4SM -RA BR BKN007 OVC014
     FM300100 29009KT P6SM BKN100=

USA.gov is the U.S. government's official web portal to all federal, state and local government web resources and services.